首页
METAR-TAF:

METAR-TAF

机场 :

莱镇, 印度

纬度: 34-08-09N, 经度: 077-32-47E, 海拔: 3256米

当前天气观测

该预报发布于38分钟前的23:30 UTC
风速3节,风向西北
温度 16°C
湿度 25%
气压 1025 hPa
能見度: 6000
少量云层高于7000英尺

METAR: VILH 162330Z 32003KT 6000 FEW070 16/M04 Q1025 NOSIG

时间: 05:38 (00:08 UTC)

预报

该预报发布于14小时和38分钟前的09:30 UTC
预报有效从16日的 18点(UTC)到 17日的 12点(UTC)
风速5节,风向西
能見度: 6000
散云层高于7000英尺
短暂存在
从 17日的 09点(UTC)到 17日的 12点(UTC)
风速10节,风向西,有时为20节阵风
少量云层高于6000英尺
散云层高于7000英尺

TAF: VILH 160930Z 1618/1712 26005KT 6000 SCT070 TEMPO 1709/1712 27010G20KT FEW060 SCT070

超过4000个机场的气象观测和天气预报(METAR&TAF报告)。

可查询的气象台以黄色和红色小点在地图上表示。

将鼠标移到小点上方,可查看气象台名称。

然后点击查看天气观测和预报。

如需切换地图:点击带黑十字的绿色按钮放大地图;点击带横线的绿色按钮缩小地图;或者点击绿色箭头查看邻近地区的地图。


METAR-TAF: